Dallas, West Virginia
Current Conditions -  °F | °C
As of 11:42 AM on Tuesday 21 Oct 2014 (Local Time) from KHLG Reporting Station
Light Rain Light Rain  
Wind Chill: 51°   Ceiling: 700
Heat Index: 51°   Visibility: 3mi
Dew Point: 49°   Wind: 6mph
Humidity: 92%   Direction: 290°WNW
Pressure: 29.9"   Gusts: NA
Location:  40.02°N, 80.53°W
Report Text: KHLG 211542Z 29005KT 3SM -RA BR BKN007 BKN014 OVC045 11/09 A2990 RMK AO2 RAB40 CIG 004V011 P0000 T01060094
Loading
Personal Weather Stations






























Interactive Weather Map
Tropical Storm Tracking
New forecast layout! Learn more

10-Day Weather Forecast

Advertisements
Track Severe Weather on mobile